Time;durP1;ratioP1;P1;durP2;ratioP2;P2;SDS_P1;SDS_P2;PMS_P1;PMS_P2;Temp;Humidity;BMP_temperature;BMP_pressure;BME280_temperature;BME280_humidity;BME280_pressure;Samples;Min_cycle;Max_cycle;Signal;HPM_P1;HPM_P2
2022/06/13 00:02:04;;;;;;;1999.90;999.90;;;16.20;99.90;;;;;;5012202;28;20199;-72
2022/06/13 00:04:30;;;;;;;1999.90;999.90;;;16.30;99.90;;;;;;5012578;28;20182;-72
2022/06/13 00:06:56;;;;;;;1999.90;999.90;;;16.30;99.90;;;;;;5012129;28;21011;-72
2022/06/13 00:09:21;;;;;;;1999.90;999.90;;;16.30;99.90;;;;;;5012492;28;20689;-72
2022/06/13 00:11:47;;;;;;;1999.90;999.90;;;16.20;99.90;;;;;;5012511;28;20181;-72
2022/06/13 00:14:13;;;;;;;1999.90;999.90;;;16.20;99.90;;;;;;5012459;28;20180;-72
2022/06/13 00:16:39;;;;;;;1999.90;999.90;;;16.20;99.90;;;;;;5012026;28;20207;-72
2022/06/13 00:19:04;;;;;;;1999.90;999.90;;;16.20;99.90;;;;;;5012386;28;20422;-72
2022/06/13 00:21:33;;;;;;;1999.90;999.90;;;16.20;99.90;;;;;;5012304;28;20216;-72
2022/06/13 00:24:01;;;;;;;1999.90;999.90;;;16.20;99.90;;;;;;5012364;28;20194;-72
2022/06/13 00:26:29;;;;;;;1999.90;999.90;;;16.10;99.90;;;;;;5011932;28;20492;-72
2022/06/13 00:28:55;;;;;;;1999.90;999.90;;;16.10;99.90;;;;;;5012296;28;20413;-72
2022/06/13 00:31:22;;;;;;;1999.90;999.90;;;16.10;99.90;;;;;;5012234;28;20427;-72
2022/06/13 00:33:47;;;;;;;1999.90;999.90;;;16.00;99.90;;;;;;5012218;28;20517;-72
2022/06/13 00:36:14;;;;;;;1999.90;999.90;;;15.90;99.90;;;;;;5011864;28;20492;-72
2022/06/13 00:38:40;;;;;;;1999.90;999.90;;;15.90;99.90;;;;;;5012196;28;20439;-72
2022/06/13 00:41:23;;;;;;;1999.90;999.90;;;15.80;99.90;;;;;;5012133;28;20420;-72
2022/06/13 00:43:49;;;;;;;1999.90;999.90;;;15.70;99.90;;;;;;5012192;28;20946;-72
2022/06/13 00:46:26;;;;;;;1999.90;999.90;;;15.60;99.90;;;;;;5011663;28;20432;-72
2022/06/13 00:49:06;;;;;;;1999.90;999.90;;;15.50;99.90;;;;;;5012110;28;20414;-72
2022/06/13 00:51:36;;;;;;;1999.90;999.90;;;15.50;99.90;;;;;;5012116;28;20420;-72
2022/06/13 00:54:02;;;;;;;1999.90;999.90;;;15.50;99.90;;;;;;5010785;28;20818;-72
2022/06/13 00:56:32;;;;;;;1999.90;999.90;;;15.50;99.90;;;;;;5011597;28;20439;-72
2022/06/13 00:59:04;;;;;;;1999.90;999.90;;;15.50;99.90;;;;;;5012005;28;20412;-72
2022/06/13 01:01:32;;;;;;;1999.90;999.90;;;15.40;99.90;;;;;;5011869;28;20545;-72
2022/06/13 01:04:01;;;;;;;1999.90;999.90;;;15.30;99.90;;;;;;5012015;28;20490;-72
2022/06/13 01:06:29;;;;;;;1999.90;999.90;;;15.30;99.90;;;;;;5011465;28;20454;-72
2022/06/13 01:08:55;;;;;;;1999.90;999.90;;;15.30;99.90;;;;;;5012165;28;21138;-72
2022/06/13 01:11:25;;;;;;;1999.90;999.90;;;15.20;99.90;;;;;;5011936;28;20415;-72
2022/06/13 01:14:06;;;;;;;1999.90;999.90;;;15.20;99.90;;;;;;5012069;28;20411;-72
2022/06/13 01:16:39;;;;;;;1999.90;999.90;;;15.20;99.90;;;;;;5015222;28;20775;-72
2022/06/13 01:19:23;;;;;;;1999.90;999.90;;;15.10;99.90;;;;;;5015637;28;20777;-72
2022/06/13 01:21:57;;;;;;;1999.90;999.90;;;15.00;99.90;;;;;;5015476;28;20557;-72
2022/06/13 01:25:08;;;;;;;1999.90;999.90;;;15.00;99.90;;;;;;5015492;28;20433;-72
2022/06/13 01:27:33;;;;;;;1999.90;999.90;;;14.90;99.90;;;;;;5015154;28;20428;-72
2022/06/13 01:30:31;;;;;;;1999.90;999.90;;;14.90;99.90;;;;;;5015309;28;20403;-72
2022/06/13 01:33:29;;;;;;;1999.90;999.90;;;14.90;99.90;;;;;;4981856;28;20666;-72
2022/06/13 01:36:06;;;;;;;1999.90;999.90;;;14.80;99.90;;;;;;5015576;28;20452;-72
2022/06/13 01:39:08;;;;;;;1999.90;999.90;;;14.70;99.90;;;;;;5015231;28;20416;-72
2022/06/13 01:41:36;;;;;;;1999.90;999.90;;;14.60;99.90;;;;;;5015102;28;20512;-72
2022/06/13 01:44:12;;;;;;;1999.90;999.90;;;14.60;99.90;;;;;;5015130;28;20486;-73
2022/06/13 01:46:50;;;;;;;1999.90;999.90;;;14.50;99.90;;;;;;5014711;28;20449;-73
2022/06/13 01:49:34;;;;;;;1999.90;999.90;;;14.40;99.90;;;;;;5015094;28;20411;-73
2022/06/13 01:52:41;;;;;;;1999.90;999.90;;;14.40;99.90;;;;;;5015028;28;20501;-73
2022/06/13 01:55:07;;;;;;;1999.90;999.90;;;14.40;99.90;;;;;;5014266;28;20463;-73
2022/06/13 01:57:46;;;;;;;1999.90;999.90;;;14.40;99.90;;;;;;5014619;28;20447;-72
2022/06/13 02:00:17;;;;;;;1999.90;999.90;;;14.40;99.90;;;;;;5014854;28;20212;-73
2022/06/13 02:03:01;;;;;;;1999.90;999.90;;;14.40;99.90;;;;;;5014714;28;20516;-72
2022/06/13 02:05:36;;;;;;;1999.90;999.90;;;14.40;99.90;;;;;;5014547;28;20448;-73
2022/06/13 02:08:20;;;;;;;1999.90;999.90;;;14.40;99.90;;;;;;5014464;28;20419;-72
2022/06/13 02:11:04;;;;;;;1999.90;999.90;;;14.30;99.90;;;;;;5014747;28;20469;-73
2022/06/13 02:13:43;;;;;;;1999.90;999.90;;;14.30;99.90;;;;;;5014635;28;20484;-73
2022/06/13 02:16:24;;;;;;;1999.90;999.90;;;14.30;99.90;;;;;;5014271;28;20460;-73
2022/06/13 02:19:00;;;;;;;1999.90;999.90;;;14.30;99.90;;;;;;5014510;28;20404;-73
2022/06/13 02:21:40;;;;;;;1999.90;999.90;;;14.30;99.90;;;;;;5014508;28;21016;-72
2022/06/13 02:24:09;;;;;;;1999.90;999.90;;;14.30;99.90;;;;;;5014451;28;20474;-72
2022/06/13 02:26:37;;;;;;;1999.90;999.90;;;14.30;99.90;;;;;;5013941;28;20441;-72
2022/06/13 02:29:24;;;;;;;1999.90;999.90;;;14.40;99.90;;;;;;5014307;28;20404;-72
2022/06/13 02:32:20;;;;;;;1999.90;999.90;;;14.50;99.90;;;;;;5014311;28;20404;-72
2022/06/13 02:34:57;;;;;;;1999.90;999.90;;;14.60;99.90;;;;;;5010177;28;20423;-73
2022/06/13 02:37:33;;;;;;;1999.90;999.90;;;14.70;99.90;;;;;;5013933;28;20407;-73
2022/06/13 02:40:23;;;;;;;1999.90;999.90;;;14.70;99.90;;;;;;5012912;28;20465;-72
2022/06/13 02:42:58;;;;;;;1999.90;999.90;;;14.80;99.90;;;;;;5013989;28;20563;-72
2022/06/13 02:45:48;;;;;;;1999.90;999.90;;;14.70;99.90;;;;;;5013874;28;20503;-72
2022/06/13 02:48:35;;;;;;;1999.90;999.90;;;14.70;99.90;;;;;;5013764;28;20408;-72
2022/06/13 02:51:27;;;;;;;1999.90;999.90;;;14.70;99.90;;;;;;5013878;28;20404;-72
2022/06/13 02:54:04;;;;;;;1999.90;999.90;;;14.80;99.90;;;;;;5013870;28;20404;-72
2022/06/13 02:57:23;;;;;;;1999.90;999.90;;;14.70;99.90;;;;;;5013460;28;20470;-72
2022/06/13 02:59:59;;;;;;;1999.90;999.90;;;14.60;99.90;;;;;;5013499;28;20417;-72
2022/06/13 03:02:44;;;;;;;1999.90;999.90;;;14.40;99.90;;;;;;5013592;28;20469;-72
2022/06/13 03:05:21;;;;;;;1999.90;999.90;;;14.30;99.90;;;;;;5013466;28;20492;-71
2022/06/13 03:08:14;;;;;;;1999.90;999.90;;;14.20;99.90;;;;;;5013250;28;20489;-72
2022/06/13 03:10:54;;;;;;;1999.90;999.90;;;14.20;99.90;;;;;;5013521;28;20790;-72
2022/06/13 03:13:34;;;;;;;1999.90;999.90;;;14.10;99.90;;;;;;5013493;28;20416;-72
2022/06/13 03:16:16;;;;;;;1999.90;999.90;;;14.10;99.90;;;;;;5013076;28;20431;-71
2022/06/13 03:18:48;;;;;;;1999.90;999.90;;;14.00;99.90;;;;;;5013407;28;20411;-72
2022/06/13 03:21:19;;;;;;;1999.90;999.90;;;13.90;99.90;;;;;;5013308;28;20500;-72
2022/06/13 03:23:53;;;;;;;1999.90;999.90;;;13.90;99.90;;;;;;5013367;28;20493;-72
2022/06/13 03:26:28;;;;;;;1999.90;999.90;;;13.90;99.90;;;;;;5012998;28;20426;-72
2022/06/13 03:29:04;;;;;;;1999.90;999.90;;;13.90;99.90;;;;;;5013037;28;20399;-72
2022/06/13 03:31:38;;;;;;;1999.90;999.90;;;13.90;99.90;;;;;;5013229;28;20785;-72
2022/06/13 03:34:09;;;;;;;1999.90;999.90;;;13.80;99.90;;;;;;5013187;28;20487;-72
2022/06/13 03:36:47;;;;;;;1999.90;999.90;;;13.80;99.90;;;;;;5012452;28;20421;-72
2022/06/13 03:39:18;;;;;;;1999.90;999.90;;;13.80;99.90;;;;;;5013210;28;20438;-72
2022/06/13 03:41:50;;;;;;;1999.90;999.90;;;13.90;99.90;;;;;;5013066;28;20795;-73
2022/06/13 03:44:30;;;;;;;1999.90;999.90;;;13.90;99.90;;;;;;5013154;28;20898;-72
2022/06/13 03:46:56;;;;;;;1999.90;999.90;;;13.90;99.90;;;;;;5012533;28;20425;-73
2022/06/13 03:49:46;;;;;;;1999.90;999.90;;;13.90;99.90;;;;;;5012856;28;20410;-72
2022/06/13 03:52:13;;;;;;;1999.90;999.90;;;13.80;99.90;;;;;;5013016;28;20177;-72
2022/06/13 03:54:50;;;;;;;1999.90;999.90;;;13.80;99.90;;;;;;5012796;28;20500;-72
2022/06/13 03:57:30;;;;;;;1999.90;999.90;;;13.80;99.90;;;;;;5012261;28;20483;-73
2022/06/13 04:00:01;;;;;;;1999.90;999.90;;;13.80;99.90;;;;;;5012655;28;20867;-72
2022/06/13 04:02:32;;;;;;;1999.90;999.90;;;13.80;99.90;;;;;;5012692;28;20461;-72
2022/06/13 04:04:58;;;;;;;1999.90;999.90;;;13.80;99.90;;;;;;5012468;28;20406;-72
2022/06/13 04:07:28;;;;;;;1999.90;999.90;;;13.90;99.90;;;;;;5012354;28;20947;-72
2022/06/13 04:09:59;;;;;;;1999.90;999.90;;;13.80;99.90;;;;;;5012549;28;20255;-72
2022/06/13 04:12:24;;;;;;;1999.90;999.90;;;13.80;99.90;;;;;;5012515;28;20418;-72
2022/06/13 04:15:07;;;;;;;1999.90;999.90;;;13.70;99.90;;;;;;5012485;28;20415;-73
2022/06/13 04:17:57;;;;;;;1999.90;999.90;;;13.70;99.90;;;;;;5012165;28;20623;-72
2022/06/13 04:20:56;;;;;;;1999.90;999.90;;;13.70;99.90;;;;;;5012418;28;20413;-73
2022/06/13 04:23:39;;;;;;;1999.90;999.90;;;13.70;99.90;;;;;;5012293;28;20457;-72
2022/06/13 04:26:40;;;;;;;1999.90;999.90;;;13.70;99.90;;;;;;5011929;28;20821;-72
2022/06/13 04:29:34;;;;;;;1999.90;999.90;;;13.70;99.90;;;;;;5001460;28;20425;-72
2022/06/13 04:32:05;;;;;;;1999.90;999.90;;;13.80;99.90;;;;;;5004635;28;20523;-72
2022/06/13 04:34:36;;;;;;;1999.90;999.90;;;13.80;99.90;;;;;;5012276;28;20403;-73
2022/06/13 04:37:04;;;;;;;1999.90;999.90;;;13.80;99.90;;;;;;5011848;28;20442;-72
2022/06/13 04:39:33;;;;;;;1999.90;999.90;;;14.00;99.90;;;;;;5012026;28;20421;-72
2022/06/13 04:42:02;;;;;;;1999.90;999.90;;;14.10;99.90;;;;;;5012072;28;20473;-73
2022/06/13 04:44:30;;;;;;;1999.90;999.90;;;14.20;99.90;;;;;;5012203;28;20461;-72
2022/06/13 04:46:57;;;;;;;1999.90;999.90;;;14.30;99.90;;;;;;5011816;28;20441;-72
2022/06/13 04:49:49;;;;;;;1999.90;999.90;;;14.40;99.90;;;;;;5013236;28;20398;-73
2022/06/13 04:52:31;;;;;;;1999.90;999.90;;;14.50;99.90;;;;;;5016162;28;20526;-72
2022/06/13 04:55:26;;;;;;;1999.90;999.90;;;14.60;99.90;;;;;;5016032;28;20412;-73
2022/06/13 04:57:52;;;;;;;1999.90;999.90;;;14.60;99.90;;;;;;5005287;28;20426;-72
2022/06/13 05:00:18;;;;;;;1999.90;999.90;;;14.70;99.90;;;;;;5015971;28;20428;-73
2022/06/13 05:02:46;;;;;;;1999.90;999.90;;;14.70;99.90;;;;;;5015907;28;20279;-72
2022/06/13 05:05:39;;;;;;;1999.90;999.90;;;14.70;99.90;;;;;;5015714;28;20467;-72
2022/06/13 05:08:29;;;;;;;1999.90;999.90;;;14.60;99.90;;;;;;5015660;28;20402;-72
2022/06/13 05:11:02;;;;;;;1999.90;999.90;;;14.70;99.90;;;;;;5015851;28;20402;-72
2022/06/13 05:13:28;;;;;;;1999.90;999.90;;;14.70;99.90;;;;;;5015813;28;20415;-72
2022/06/13 05:16:10;;;;;;;1999.90;999.90;;;14.80;99.90;;;;;;5015383;28;20427;-73
2022/06/13 05:19:09;;;;;;;1999.90;999.90;;;14.80;99.90;;;;;;5015641;28;20399;-72
2022/06/13 05:22:18;;;;;;;1999.90;999.90;;;14.90;99.90;;;;;;5008701;28;20462;-72
2022/06/13 05:24:45;;;;;;;1999.90;999.90;;;15.00;99.90;;;;;;4989623;28;21001;-73
2022/06/13 05:27:11;;;;;;;1999.90;999.90;;;15.10;99.90;;;;;;5015076;28;20431;-73
2022/06/13 05:29:36;;;;;;;1999.90;999.90;;;15.10;99.90;;;;;;5015297;28;20492;-72
2022/06/13 05:32:06;;;;;;;1999.90;999.90;;;15.10;99.90;;;;;;5015353;28;20250;-72
2022/06/13 05:34:37;;;;;;;1999.90;999.90;;;15.20;99.90;;;;;;5015340;28;20176;-72
2022/06/13 05:37:03;;;;;;;1999.90;999.90;;;15.30;99.90;;;;;;5015069;28;20428;-72
2022/06/13 05:39:30;;;;;;;1999.90;999.90;;;15.40;99.90;;;;;;5015199;28;20408;-72
2022/06/13 05:41:55;;;;;;;1999.90;999.90;;;15.50;99.90;;;;;;5015108;28;20428;-72
2022/06/13 05:44:21;;;;;;;1999.90;999.90;;;15.50;99.90;;;;;;5015170;28;20424;-72
2022/06/13 05:46:47;;;;;;;1999.90;999.90;;;15.50;99.90;;;;;;5014705;28;20630;-72
2022/06/13 05:49:13;;;;;;;1999.90;999.90;;;15.50;99.90;;;;;;5015071;28;20181;-72
2022/06/13 05:51:39;;;;;;;1999.90;999.90;;;15.50;99.90;;;;;;5015101;28;20196;-72
2022/06/13 05:54:05;;;;;;;1999.90;999.90;;;15.50;99.90;;;;;;5014982;28;20849;-72
2022/06/13 05:56:31;;;;;;;1999.90;999.90;;;15.50;99.90;;;;;;5014594;28;20424;-72
2022/06/13 05:58:57;;;;;;;1999.90;999.90;;;15.50;99.90;;;;;;5015086;28;20175;-72
2022/06/13 06:01:23;;;;;;;1999.90;999.90;;;15.60;99.90;;;;;;5014271;28;20408;-72
2022/06/13 06:03:48;;;;;;;1999.90;999.90;;;15.60;99.90;;;;;;5014904;28;20166;-72
2022/06/13 06:06:20;;;;;;;1999.90;999.90;;;15.80;99.90;;;;;;5014310;28;20840;-72
2022/06/13 06:08:46;;;;;;;1999.90;999.90;;;16.00;99.90;;;;;;5014799;28;20177;-72
2022/06/13 06:11:12;;;;;;;1999.90;999.90;;;16.00;99.90;;;;;;5014585;28;20408;-71
2022/06/13 06:13:37;;;;;;;1999.90;999.90;;;16.00;99.90;;;;;;5014642;28;20170;-72
2022/06/13 06:16:04;;;;;;;1999.90;999.90;;;16.00;99.90;;;;;;5014198;28;20716;-71
2022/06/13 06:18:30;;;;;;;1999.90;999.90;;;16.10;99.90;;;;;;5013336;28;20199;-72
2022/06/13 06:20:56;;;;;;;1999.90;999.90;;;16.10;99.90;;;;;;5014510;28;20408;-73
2022/06/13 06:23:22;;;;;;;1999.90;999.90;;;16.20;99.90;;;;;;5012751;28;20542;-72
2022/06/13 06:25:48;;;;;;;1999.90;999.90;;;16.20;99.90;;;;;;5014183;28;20474;-73
2022/06/13 06:28:20;;;;;;;1999.90;999.90;;;16.20;99.90;;;;;;5014183;28;20413;-72
2022/06/13 06:30:46;;;;;;;1999.90;999.90;;;16.50;99.90;;;;;;5014418;28;20778;-72
2022/06/13 06:33:12;;;;;;;1999.90;999.90;;;16.70;99.90;;;;;;5014223;28;20418;-72
2022/06/13 06:35:38;;;;;;;1999.90;999.90;;;16.70;99.90;;;;;;5013996;28;20205;-73
2022/06/13 06:38:04;;;;;;;1999.90;999.90;;;16.90;99.90;;;;;;5013770;28;20417;-73
2022/06/13 06:40:30;;;;;;;1999.90;999.90;;;17.10;99.90;;;;;;5013974;28;20417;-74
2022/06/13 06:42:55;;;;;;;1999.90;999.90;;;17.30;99.90;;;;;;5013923;28;20197;-73
2022/06/13 06:45:25;;;;;;;1999.90;999.90;;;17.40;99.90;;;;;;5013990;28;20272;-72
2022/06/13 06:47:52;;;;;;;1999.90;999.90;;;17.50;99.90;;;;;;5013772;28;20169;-72
2022/06/13 06:50:24;;;;;;;1999.90;999.90;;;17.40;99.90;;;;;;5014036;28;20489;-72
2022/06/13 06:52:50;;;;;;;1999.90;999.90;;;17.20;99.90;;;;;;5013765;28;20502;-72
2022/06/13 07:00:50;;;;;;;1999.90;999.90;;;16.80;99.90;;;;;;5014041;28;20458;-72
2022/06/13 07:03:17;;;;;;;1999.90;999.90;;;16.70;99.90;;;;;;5013562;28;20461;-72
2022/06/13 07:05:43;;;;;;;1999.90;999.90;;;16.60;99.90;;;;;;5013447;28;20873;-73
2022/06/13 07:08:09;;;;;;;1999.90;999.90;;;16.60;99.90;;;;;;5013278;28;20499;-73
2022/06/13 07:10:34;;;;;;;1999.90;999.90;;;16.70;99.90;;;;;;5013577;28;20966;-73
2022/06/13 07:13:01;;;;;;;1999.90;999.90;;;16.60;99.90;;;;;;5012608;28;20180;-73
2022/06/13 07:15:26;;;;;;;1999.90;999.90;;;16.80;99.90;;;;;;5013413;28;20193;-72
2022/06/13 07:17:53;;;;;;;1999.90;999.90;;;16.90;99.90;;;;;;5012963;28;20414;-73
2022/06/13 07:20:19;;;;;;;1999.90;999.90;;;17.00;99.90;;;;;;5013297;28;20203;-72
2022/06/13 07:22:49;;;;;;;1999.90;999.90;;;17.10;99.90;;;;;;5013092;28;20456;-73
2022/06/13 07:25:17;;;;;;;1999.90;999.90;;;17.20;99.90;;;;;;5013245;28;20424;-73
2022/06/13 07:27:43;;;;;;;1999.90;999.90;;;17.30;99.90;;;;;;5013032;28;20396;-72
2022/06/13 07:30:10;;;;;;;1999.90;999.90;;;17.30;99.90;;;;;;5013146;28;20455;-73
2022/06/13 07:32:36;;;;;;;1999.90;999.90;;;17.30;99.90;;;;;;5013137;28;20965;-73
2022/06/13 07:35:02;;;;;;;1999.90;999.90;;;17.30;99.90;;;;;;5013459;28;20419;-72
2022/06/13 07:40:14;;;;;;;1999.90;999.90;;;17.40;99.90;;;;;;4992099;28;20420;-72
2022/06/13 07:42:53;;;;;;;1999.90;999.90;;;17.40;99.90;;;;;;5012984;28;20530;-72
2022/06/13 07:45:22;;;;;;;1999.90;999.90;;;17.40;99.90;;;;;;5013695;28;20566;-71
2022/06/13 07:47:51;;;;;;;1999.90;999.90;;;17.40;99.90;;;;;;5013285;28;20404;-72
2022/06/13 07:50:20;;;;;;;1999.90;999.90;;;17.30;99.90;;;;;;5012421;28;20794;-72
2022/06/13 07:52:50;;;;;;;1999.90;999.90;;;17.40;99.90;;;;;;5014217;28;20469;-72
2022/06/13 07:55:16;;;;;;;1999.90;999.90;;;17.40;99.90;;;;;;5014040;28;20871;-71
2022/06/13 07:57:43;;;;;;;1999.90;999.90;;;17.50;99.90;;;;;;5013371;28;20819;-71
2022/06/13 08:00:14;;;;;;;1999.90;999.90;;;17.50;99.90;;;;;;5013870;28;20605;-72
2022/06/13 08:02:39;;;;;;;1999.90;999.90;;;17.30;99.90;;;;;;5013512;28;20559;-72
2022/06/13 08:05:06;;;;;;;1999.90;999.90;;;17.40;99.90;;;;;;5014574;28;20448;-72
2022/06/13 08:07:31;;;;;;;1999.90;999.90;;;17.50;99.90;;;;;;5013006;28;20695;-72
2022/06/13 08:09:57;;;;;;;1999.90;999.90;;;17.60;99.90;;;;;;5014188;28;20410;-71
2022/06/13 08:12:24;;;;;;;1999.90;999.90;;;17.60;99.90;;;;;;5015167;28;20204;-72
2022/06/13 08:14:50;;;;;;;1999.90;999.90;;;17.70;99.90;;;;;;5013874;28;21165;-71
2022/06/13 08:17:17;;;;;;;1999.90;999.90;;;17.90;99.90;;;;;;5013432;28;20501;-72
2022/06/13 08:19:43;;;;;;;1999.90;999.90;;;18.00;99.90;;;;;;5015434;28;20174;-72
2022/06/13 08:22:09;;;;;;;1999.90;999.90;;;18.10;99.90;;;;;;5012865;28;20461;-72
2022/06/13 08:24:34;;;;;;;1999.90;999.90;;;18.10;99.90;;;;;;5014017;28;20250;-72
2022/06/13 08:27:00;;;;;;;1999.90;999.90;;;18.10;99.90;;;;;;5013084;28;20195;-72
2022/06/13 08:29:26;;;;;;;1999.90;999.90;;;18.20;99.90;;;;;;5013471;28;20628;-72
2022/06/13 08:31:51;;;;;;;1999.90;999.90;;;18.30;99.90;;;;;;5013522;28;20184;-72
2022/06/13 08:34:17;;;;;;;1999.90;999.90;;;18.40;99.90;;;;;;5015830;28;20260;-72
2022/06/13 08:36:43;;;;;;;1999.90;999.90;;;18.40;99.90;;;;;;5015326;28;20189;-72
2022/06/13 08:39:08;;;;;;;1999.90;999.90;;;18.30;99.90;;;;;;5013213;28;20680;-72
2022/06/13 08:41:52;;;;;;;1999.90;999.90;;;18.30;99.90;;;;;;5014280;28;20700;-71
2022/06/13 08:44:23;;;;;;;1999.90;999.90;;;18.40;99.90;;;;;;5015760;28;20634;-72
2022/06/13 08:46:51;;;;;;;1999.90;999.90;;;18.60;99.90;;;;;;5015137;28;20937;-71
2022/06/13 08:49:38;;;;;;;1999.90;999.90;;;18.60;99.90;;;;;;5011899;28;20412;-71
2022/06/13 08:52:16;;;;;;;1999.90;999.90;;;18.80;99.90;;;;;;5012656;28;20407;-71
2022/06/13 08:54:45;;;;;;;1999.90;999.90;;;18.90;99.90;;;;;;5014461;28;20406;-72
2022/06/13 08:57:12;;;;;;;1999.90;999.90;;;19.00;99.90;;;;;;5013917;28;20463;-72
2022/06/13 08:59:50;;;;;;;1999.90;999.90;;;19.20;99.90;;;;;;5013433;28;20422;-72
2022/06/13 09:02:20;;;;;;;1999.90;999.90;;;19.50;99.90;;;;;;5014924;28;20478;-72
2022/06/13 09:05:01;;;;;;;1999.90;999.90;;;19.70;99.90;;;;;;5013335;28;20408;-72
2022/06/13 09:07:52;;;;;;;1999.90;999.90;;;19.70;99.90;;;;;;5013100;28;20415;-72
2022/06/13 09:10:37;;;;;;;1999.90;999.90;;;19.70;99.90;;;;;;5002238;28;20797;-72
2022/06/13 09:13:25;;;;;;;1999.90;999.90;;;19.60;99.90;;;;;;5015764;28;20456;-72
2022/06/13 09:15:59;;;;;;;1999.90;999.90;;;19.30;99.90;;;;;;5012331;28;20513;-72
2022/06/13 09:18:40;;;;;;;1999.90;999.90;;;19.30;99.90;;;;;;5011845;28;20406;-72
2022/06/13 09:21:10;;;;;;;1999.90;999.90;;;19.60;99.90;;;;;;5011872;28;20412;-73
2022/06/13 09:24:12;;;;;;;1999.90;999.90;;;19.90;99.90;;;;;;5011833;28;20455;-72
2022/06/13 09:26:49;;;;;;;1999.90;999.90;;;20.10;99.90;;;;;;5011380;28;20419;-72
2022/06/13 09:29:24;;;;;;;1999.90;999.90;;;20.30;99.90;;;;;;5011672;28;20928;-72
2022/06/13 09:31:59;;;;;;;1999.90;999.90;;;20.30;99.90;;;;;;5011625;28;20516;-72
2022/06/13 09:34:40;;;;;;;1999.90;999.90;;;20.40;99.90;;;;;;5011700;28;20393;-72
2022/06/13 09:37:10;;;;;;;1999.90;999.90;;;20.50;99.90;;;;;;5014912;28;20492;-72
2022/06/13 09:39:37;;;;;;;1999.90;999.90;;;20.40;99.90;;;;;;5015350;28;20378;-72
2022/06/13 09:42:45;;;;;;;1999.90;999.90;;;20.50;99.90;;;;;;5013263;28;20483;-71
2022/06/13 09:45:22;;;;;;;1999.90;999.90;;;20.70;99.90;;;;;;5015190;28;20517;-71
2022/06/13 09:48:09;;;;;;;1999.90;999.90;;;20.50;99.90;;;;;;5016717;28;20417;-71
2022/06/13 09:50:57;;;;;;;1999.90;999.90;;;20.50;99.90;;;;;;5018791;28;20387;-71
2022/06/13 09:53:49;;;;;;;1999.90;999.90;;;20.50;99.90;;;;;;5019100;28;20408;-70
2022/06/13 09:56:44;;;;;;;1999.90;999.90;;;20.30;99.90;;;;;;5016340;28;20420;-70
2022/06/13 09:59:34;;;;;;;1999.90;999.90;;;20.30;99.90;;;;;;5015347;28;20431;-68
2022/06/13 10:02:04;;;;;;;1999.90;999.90;;;20.10;99.90;;;;;;5014638;28;20476;-73
2022/06/13 10:04:43;;;;;;;1999.90;999.90;;;20.20;99.90;;;;;;5014627;28;20393;-73
2022/06/13 10:07:37;;;;;;;1999.90;999.90;;;20.40;99.90;;;;;;5014116;28;20430;-73
2022/06/13 10:10:29;;;;;;;1999.90;999.90;;;20.30;99.90;;;;;;5014686;28;20434;-72
2022/06/13 10:13:20;;;;;;;1999.90;999.90;;;20.30;99.90;;;;;;5014465;28;20841;-72
2022/06/13 10:15:54;;;;;;;1999.90;999.90;;;20.30;99.90;;;;;;5015688;28;20421;-73
2022/06/13 10:18:48;;;;;;;1999.90;999.90;;;20.30;99.90;;;;;;5017507;28;20415;-72
2022/06/13 10:21:33;;;;;;;1999.90;999.90;;;20.10;99.90;;;;;;4976951;28;20419;-72
2022/06/13 10:24:24;;;;;;;1999.90;999.90;;;19.70;99.90;;;;;;5015482;28;20416;-71
2022/06/13 10:27:19;;;;;;;1999.90;999.90;;;19.40;99.90;;;;;;5015284;28;20412;-72
2022/06/13 10:30:12;;;;;;;1999.90;999.90;;;19.40;99.90;;;;;;5016003;28;20399;-71
2022/06/13 10:32:46;;;;;;;1999.90;999.90;;;19.60;99.90;;;;;;5016360;28;20940;-71
2022/06/13 10:35:46;;;;;;;1999.90;999.90;;;19.60;99.90;;;;;;5015262;28;20407;-72
2022/06/13 10:38:41;;;;;;;1999.90;999.90;;;20.00;99.90;;;;;;5016331;28;20458;-71
2022/06/13 10:41:07;;;;;;;1999.90;999.90;;;20.50;99.90;;;;;;5015358;28;20408;-71
2022/06/13 10:43:34;;;;;;;1999.90;999.90;;;21.00;99.90;;;;;;5015367;28;20459;-72
2022/06/13 10:45:59;;;;;;;1999.90;999.90;;;21.20;99.90;;;;;;5014684;28;20415;-71
2022/06/13 10:48:36;;;;;;;1999.90;999.90;;;20.90;99.90;;;;;;5015675;28;20415;-71
2022/06/13 10:51:03;;;;;;;1999.90;999.90;;;21.00;99.90;;;;;;5016007;28;20643;-71
2022/06/13 10:53:46;;;;;;;1999.90;999.90;;;21.20;99.90;;;;;;5015313;28;20460;-71
2022/06/13 10:56:21;;;;;;;1999.90;999.90;;;21.00;99.90;;;;;;5014135;28;20464;-71
2022/06/13 10:58:54;;;;;;;1999.90;999.90;;;20.80;99.90;;;;;;5015261;28;20389;-71
2022/06/13 11:01:23;;;;;;;1999.90;999.90;;;20.90;99.90;;;;;;5014757;28;20485;-71
2022/06/13 11:04:15;;;;;;;1999.90;999.90;;;21.10;99.90;;;;;;5014272;28;20514;-71
2022/06/13 11:06:47;;;;;;;1999.90;999.90;;;21.40;99.90;;;;;;5013815;28;20542;-71
2022/06/13 11:09:30;;;;;;;1999.90;999.90;;;21.80;99.90;;;;;;5014417;28;21087;-71
2022/06/13 11:12:00;;;;;;;1999.90;999.90;;;21.80;99.90;;;;;;5014361;28;20440;-70
2022/06/13 11:14:38;;;;;;;1999.90;999.90;;;21.60;99.90;;;;;;5014018;28;20932;-71
2022/06/13 11:22:56;;;;;;;1999.90;999.90;;;21.10;99.90;;;;;;5014498;28;20460;-71
2022/06/13 11:25:25;;;;;;;1999.90;999.90;;;20.80;99.90;;;;;;5014383;28;20486;-71
2022/06/13 11:28:13;;;;;;;1999.90;999.90;;;20.70;99.90;;;;;;5013561;28;20408;-71
2022/06/13 11:30:40;;;;;;;1999.90;999.90;;;21.00;99.90;;;;;;5012875;28;20419;-72
2022/06/13 11:33:09;;;;;;;1999.90;999.90;;;21.00;99.90;;;;;;5011381;28;20784;-72
2022/06/13 11:35:58;;;;;;;1999.90;999.90;;;21.00;99.90;;;;;;5012622;28;20892;-72
2022/06/13 11:38:33;;;;;;;1999.90;999.90;;;21.20;99.90;;;;;;5012688;28;20496;-72
2022/06/13 11:41:11;;;;;;;1999.90;999.90;;;21.30;99.90;;;;;;5012850;28;20409;-72
2022/06/13 11:44:01;;;;;;;1999.90;999.90;;;21.20;99.90;;;;;;5012525;28;20605;-71
2022/06/13 11:46:27;;;;;;;1999.90;999.90;;;20.90;99.90;;;;;;5012140;28;20416;-71
2022/06/13 11:48:59;;;;;;;1999.90;999.90;;;21.00;99.90;;;;;;5012471;28;20409;-71
2022/06/13 11:51:29;;;;;;;1999.90;999.90;;;21.00;99.90;;;;;;5012539;28;20175;-72
2022/06/13 11:53:57;;;;;;;1999.90;999.90;;;21.30;99.90;;;;;;5012373;28;20420;-72
2022/06/13 11:56:31;;;;;;;1999.90;999.90;;;21.70;99.90;;;;;;5012074;28;20407;-72
2022/06/13 11:59:01;;;;;;;1999.90;999.90;;;21.80;99.90;;;;;;5010885;28;20430;-71
2022/06/13 12:01:32;;;;;;;1999.90;999.90;;;21.90;99.90;;;;;;5012262;28;20416;-72
2022/06/13 12:04:05;;;;;;;1999.90;999.90;;;22.10;99.50;;;;;;5012434;28;20804;-72
2022/06/13 12:06:55;;;;;;;1999.90;999.90;;;22.20;99.90;;;;;;5011753;28;20495;-70
2022/06/13 12:09:24;;;;;;;1999.90;999.90;;;22.40;97.70;;;;;;5011612;28;20505;-72
2022/06/13 12:12:00;;;;;;;1999.90;999.90;;;22.80;94.80;;;;;;5012103;28;20863;-72
2022/06/13 12:14:30;;;;;;;1999.90;999.90;;;23.40;92.40;;;;;;5012413;28;20425;-72
2022/06/13 12:17:18;;;;;;;1999.90;999.90;;;23.70;83.20;;;;;;5011692;28;20407;-72
2022/06/13 12:19:46;;;;;;;1999.90;999.90;;;23.70;70.80;;;;;;5012122;28;20770;-72
2022/06/13 12:22:27;;;;;;;1999.90;999.90;;;23.90;74.20;;;;;;5012013;28;20437;-72
2022/06/13 12:25:11;;;;;;;1999.90;999.90;;;24.30;73.70;;;;;;5011791;28;20466;-71
2022/06/13 12:27:56;;;;;;;1999.90;999.90;;;24.50;56.20;;;;;;5011882;28;20378;-72
2022/06/13 12:30:30;;;;;;;1999.90;999.90;;;24.10;54.90;;;;;;5012208;28;20378;-71
2022/06/13 12:33:13;;;;;;;1999.90;999.90;;;23.40;55.60;;;;;;5012217;28;20411;-72
2022/06/13 12:35:59;;;;;;;1999.90;999.90;;;23.50;58.90;;;;;;5012171;28;20980;-72
2022/06/13 12:38:46;;;;;;;1999.90;999.90;;;24.10;64.90;;;;;;5012306;28;20454;-71
2022/06/13 12:41:35;;;;;;;1999.90;999.90;;;24.60;55.10;;;;;;5012209;28;20393;-71
2022/06/13 12:44:20;;;;;;;1999.90;999.90;;;25.40;61.60;;;;;;5012197;28;20404;-72
2022/06/13 12:47:00;;;;;;;1999.90;999.90;;;25.60;56.20;;;;;;5011694;28;20394;-72
2022/06/13 12:49:37;;;;;;;1999.90;999.90;;;25.60;53.80;;;;;;5012164;28;20396;-71
2022/06/13 12:52:43;;;;;;;1999.90;999.90;;;25.20;49.40;;;;;;5012083;28;20374;-69